sensor_id;sensor_type;location;lat;lon;timestamp;P1;durP1;ratioP1;P2;durP2;ratioP2
27666;SDS011;15074;50.940;5.282;2023-07-09T00:01:16;7.10;;;6.50;;
27666;SDS011;15074;50.940;5.282;2023-07-09T00:03:43;7.28;;;6.57;;
27666;SDS011;15074;50.940;5.282;2023-07-09T00:06:10;10.35;;;6.57;;
27666;SDS011;15074;50.940;5.282;2023-07-09T00:08:38;7.43;;;6.18;;
27666;SDS011;15074;50.940;5.282;2023-07-09T00:11:08;6.95;;;6.28;;
27666;SDS011;15074;50.940;5.282;2023-07-09T00:13:34;7.35;;;6.13;;
27666;SDS011;15074;50.940;5.282;2023-07-09T00:16:00;7.22;;;6.32;;
27666;SDS011;15074;50.940;5.282;2023-07-09T00:18:32;7.75;;;7.15;;
27666;SDS011;15074;50.940;5.282;2023-07-09T00:20:59;7.57;;;6.88;;
27666;SDS011;15074;50.940;5.282;2023-07-09T00:23:26;10.03;;;6.57;;
27666;SDS011;15074;50.940;5.282;2023-07-09T00:25:52;7.07;;;6.38;;
27666;SDS011;15074;50.940;5.282;2023-07-09T00:28:18;8.88;;;6.75;;
27666;SDS011;15074;50.940;5.282;2023-07-09T00:30:45;6.25;;;5.75;;
27666;SDS011;15074;50.940;5.282;2023-07-09T00:33:12;6.85;;;6.15;;
27666;SDS011;15074;50.940;5.282;2023-07-09T00:35:40;7.25;;;6.45;;
27666;SDS011;15074;50.940;5.282;2023-07-09T00:38:14;8.00;;;6.68;;
27666;SDS011;15074;50.940;5.282;2023-07-09T00:40:48;8.43;;;6.90;;
27666;SDS011;15074;50.940;5.282;2023-07-09T00:43:35;7.60;;;6.33;;
27666;SDS011;15074;50.940;5.282;2023-07-09T00:48:46;6.18;;;5.57;;
27666;SDS011;15074;50.940;5.282;2023-07-09T00:51:16;7.63;;;6.85;;
27666;SDS011;15074;50.940;5.282;2023-07-09T00:53:46;6.88;;;6.28;;
27666;SDS011;15074;50.940;5.282;2023-07-09T00:56:15;7.18;;;5.97;;
27666;SDS011;15074;50.940;5.282;2023-07-09T00:58:46;8.40;;;6.18;;
27666;SDS011;15074;50.940;5.282;2023-07-09T01:01:14;7.03;;;6.30;;
27666;SDS011;15074;50.940;5.282;2023-07-09T01:03:47;8.00;;;7.10;;
27666;SDS011;15074;50.940;5.282;2023-07-09T01:06:18;7.43;;;6.45;;
27666;SDS011;15074;50.940;5.282;2023-07-09T01:08:55;6.88;;;6.20;;
27666;SDS011;15074;50.940;5.282;2023-07-09T01:11:21;7.32;;;6.63;;
27666;SDS011;15074;50.940;5.282;2023-07-09T01:13:48;7.55;;;6.95;;
27666;SDS011;15074;50.940;5.282;2023-07-09T01:16:16;8.23;;;7.43;;
27666;SDS011;15074;50.940;5.282;2023-07-09T01:18:43;7.40;;;6.70;;
27666;SDS011;15074;50.940;5.282;2023-07-09T01:21:09;9.98;;;6.70;;
27666;SDS011;15074;50.940;5.282;2023-07-09T01:23:44;7.60;;;6.88;;
27666;SDS011;15074;50.940;5.282;2023-07-09T01:26:11;7.38;;;6.70;;
27666;SDS011;15074;50.940;5.282;2023-07-09T01:28:39;9.15;;;6.47;;
27666;SDS011;15074;50.940;5.282;2023-07-09T01:31:12;8.75;;;7.38;;
27666;SDS011;15074;50.940;5.282;2023-07-09T01:33:40;9.43;;;7.43;;
27666;SDS011;15074;50.940;5.282;2023-07-09T01:36:07;8.50;;;7.70;;
27666;SDS011;15074;50.940;5.282;2023-07-09T01:38:33;8.60;;;7.90;;
27666;SDS011;15074;50.940;5.282;2023-07-09T01:40:59;9.65;;;8.02;;
27666;SDS011;15074;50.940;5.282;2023-07-09T01:43:26;9.25;;;8.50;;
27666;SDS011;15074;50.940;5.282;2023-07-09T01:45:52;9.27;;;8.02;;
27666;SDS011;15074;50.940;5.282;2023-07-09T01:48:23;8.25;;;7.65;;
27666;SDS011;15074;50.940;5.282;2023-07-09T01:50:50;8.00;;;6.97;;
27666;SDS011;15074;50.940;5.282;2023-07-09T01:53:17;9.32;;;7.72;;
27666;SDS011;15074;50.940;5.282;2023-07-09T01:55:50;8.07;;;6.93;;
27666;SDS011;15074;50.940;5.282;2023-07-09T01:58:16;8.18;;;7.47;;
27666;SDS011;15074;50.940;5.282;2023-07-09T02:00:41;8.38;;;7.68;;
27666;SDS011;15074;50.940;5.282;2023-07-09T02:03:07;9.40;;;7.22;;
27666;SDS011;15074;50.940;5.282;2023-07-09T02:05:34;8.70;;;8.00;;
27666;SDS011;15074;50.940;5.282;2023-07-09T02:08:01;8.77;;;8.07;;
27666;SDS011;15074;50.940;5.282;2023-07-09T02:10:27;8.40;;;7.68;;
27666;SDS011;15074;50.940;5.282;2023-07-09T02:12:53;9.98;;;8.40;;
27666;SDS011;15074;50.940;5.282;2023-07-09T02:15:19;8.73;;;7.88;;
27666;SDS011;15074;50.940;5.282;2023-07-09T02:17:45;12.88;;;8.13;;
27666;SDS011;15074;50.940;5.282;2023-07-09T02:20:11;8.38;;;7.63;;
27666;SDS011;15074;50.940;5.282;2023-07-09T02:22:38;8.20;;;7.43;;
27666;SDS011;15074;50.940;5.282;2023-07-09T02:25:04;7.78;;;7.03;;
27666;SDS011;15074;50.940;5.282;2023-07-09T02:27:31;9.52;;;8.07;;
27666;SDS011;15074;50.940;5.282;2023-07-09T02:29:57;7.82;;;7.13;;
27666;SDS011;15074;50.940;5.282;2023-07-09T02:32:25;8.52;;;7.82;;
27666;SDS011;15074;50.940;5.282;2023-07-09T02:34:52;8.05;;;7.35;;
27666;SDS011;15074;50.940;5.282;2023-07-09T02:37:19;8.07;;;7.47;;
27666;SDS011;15074;50.940;5.282;2023-07-09T02:39:47;7.40;;;6.78;;
27666;SDS011;15074;50.940;5.282;2023-07-09T02:42:13;12.25;;;7.53;;
27666;SDS011;15074;50.940;5.282;2023-07-09T02:44:41;7.53;;;6.93;;
27666;SDS011;15074;50.940;5.282;2023-07-09T02:47:07;8.77;;;6.80;;
27666;SDS011;15074;50.940;5.282;2023-07-09T02:49:33;7.80;;;7.10;;
27666;SDS011;15074;50.940;5.282;2023-07-09T02:51:59;7.97;;;7.28;;
27666;SDS011;15074;50.940;5.282;2023-07-09T02:54:25;9.25;;;6.95;;
27666;SDS011;15074;50.940;5.282;2023-07-09T02:56:51;9.30;;;7.40;;
27666;SDS011;15074;50.940;5.282;2023-07-09T02:59:17;7.70;;;6.90;;
27666;SDS011;15074;50.940;5.282;2023-07-09T03:01:42;7.55;;;6.72;;
27666;SDS011;15074;50.940;5.282;2023-07-09T03:04:08;8.00;;;6.68;;
27666;SDS011;15074;50.940;5.282;2023-07-09T03:06:34;7.18;;;6.47;;
27666;SDS011;15074;50.940;5.282;2023-07-09T03:09:01;7.65;;;7.03;;
27666;SDS011;15074;50.940;5.282;2023-07-09T03:11:29;7.93;;;7.28;;
27666;SDS011;15074;50.940;5.282;2023-07-09T03:13:56;9.55;;;6.63;;
27666;SDS011;15074;50.940;5.282;2023-07-09T03:16:22;7.60;;;7.00;;
27666;SDS011;15074;50.940;5.282;2023-07-09T03:18:48;11.13;;;7.10;;
27666;SDS011;15074;50.940;5.282;2023-07-09T03:21:13;7.75;;;6.95;;
27666;SDS011;15074;50.940;5.282;2023-07-09T03:23:40;7.80;;;7.10;;
27666;SDS011;15074;50.940;5.282;2023-07-09T03:26:06;8.50;;;6.78;;
27666;SDS011;15074;50.940;5.282;2023-07-09T03:28:31;7.80;;;7.10;;
27666;SDS011;15074;50.940;5.282;2023-07-09T03:30:57;7.57;;;6.80;;
27666;SDS011;15074;50.940;5.282;2023-07-09T03:33:23;7.85;;;7.05;;
27666;SDS011;15074;50.940;5.282;2023-07-09T03:35:50;10.32;;;7.63;;
27666;SDS011;15074;50.940;5.282;2023-07-09T03:38:17;7.68;;;7.10;;
27666;SDS011;15074;50.940;5.282;2023-07-09T03:40:43;8.57;;;7.80;;
27666;SDS011;15074;50.940;5.282;2023-07-09T03:43:09;9.15;;;7.47;;
27666;SDS011;15074;50.940;5.282;2023-07-09T03:45:35;7.82;;;7.03;;
27666;SDS011;15074;50.940;5.282;2023-07-09T03:48:02;8.63;;;7.82;;
27666;SDS011;15074;50.940;5.282;2023-07-09T03:50:29;8.88;;;7.40;;
27666;SDS011;15074;50.940;5.282;2023-07-09T03:52:55;8.35;;;7.10;;
27666;SDS011;15074;50.940;5.282;2023-07-09T03:55:20;7.80;;;6.90;;
27666;SDS011;15074;50.940;5.282;2023-07-09T03:57:46;10.05;;;6.97;;
27666;SDS011;15074;50.940;5.282;2023-07-09T04:00:12;7.38;;;6.68;;
27666;SDS011;15074;50.940;5.282;2023-07-09T04:02:39;7.90;;;7.05;;
27666;SDS011;15074;50.940;5.282;2023-07-09T04:05:06;7.72;;;7.07;;
27666;SDS011;15074;50.940;5.282;2023-07-09T04:07:35;9.38;;;7.70;;
27666;SDS011;15074;50.940;5.282;2023-07-09T04:10:01;10.52;;;7.60;;
27666;SDS011;15074;50.940;5.282;2023-07-09T04:12:27;10.80;;;7.57;;
27666;SDS011;15074;50.940;5.282;2023-07-09T04:14:53;8.90;;;7.00;;
27666;SDS011;15074;50.940;5.282;2023-07-09T04:17:18;8.30;;;7.55;;
27666;SDS011;15074;50.940;5.282;2023-07-09T04:19:44;10.48;;;6.78;;
27666;SDS011;15074;50.940;5.282;2023-07-09T04:22:10;9.13;;;6.95;;
27666;SDS011;15074;50.940;5.282;2023-07-09T04:24:36;9.63;;;7.53;;
27666;SDS011;15074;50.940;5.282;2023-07-09T04:27:02;8.55;;;6.68;;
27666;SDS011;15074;50.940;5.282;2023-07-09T04:29:31;7.95;;;7.25;;
27666;SDS011;15074;50.940;5.282;2023-07-09T04:32:01;7.88;;;6.85;;
27666;SDS011;15074;50.940;5.282;2023-07-09T04:34:27;7.43;;;6.70;;
27666;SDS011;15074;50.940;5.282;2023-07-09T04:36:53;7.45;;;6.80;;
27666;SDS011;15074;50.940;5.282;2023-07-09T04:39:19;7.25;;;6.53;;
27666;SDS011;15074;50.940;5.282;2023-07-09T04:41:44;8.65;;;7.18;;
27666;SDS011;15074;50.940;5.282;2023-07-09T04:44:10;7.70;;;7.00;;
27666;SDS011;15074;50.940;5.282;2023-07-09T04:46:35;9.00;;;6.95;;
27666;SDS011;15074;50.940;5.282;2023-07-09T04:49:02;11.15;;;6.70;;
27666;SDS011;15074;50.940;5.282;2023-07-09T04:51:28;7.10;;;6.40;;
27666;SDS011;15074;50.940;5.282;2023-07-09T04:53:54;7.95;;;6.15;;
27666;SDS011;15074;50.940;5.282;2023-07-09T04:56:19;7.63;;;6.88;;
27666;SDS011;15074;50.940;5.282;2023-07-09T04:58:45;8.13;;;6.75;;
27666;SDS011;15074;50.940;5.282;2023-07-09T05:01:11;7.25;;;6.55;;
27666;SDS011;15074;50.940;5.282;2023-07-09T05:03:36;8.32;;;6.22;;
27666;SDS011;15074;50.940;5.282;2023-07-09T05:06:03;7.37;;;5.90;;
27666;SDS011;15074;50.940;5.282;2023-07-09T05:08:30;6.55;;;5.95;;
27666;SDS011;15074;50.940;5.282;2023-07-09T05:10:56;6.75;;;5.38;;
27666;SDS011;15074;50.940;5.282;2023-07-09T05:13:23;10.55;;;6.60;;
27666;SDS011;15074;50.940;5.282;2023-07-09T05:15:49;6.38;;;5.78;;
27666;SDS011;15074;50.940;5.282;2023-07-09T05:18:16;8.68;;;5.63;;
27666;SDS011;15074;50.940;5.282;2023-07-09T05:20:43;7.07;;;6.07;;
27666;SDS011;15074;50.940;5.282;2023-07-09T05:23:09;7.25;;;5.47;;
27666;SDS011;15074;50.940;5.282;2023-07-09T05:25:35;6.90;;;6.30;;
27666;SDS011;15074;50.940;5.282;2023-07-09T05:28:02;7.03;;;5.93;;
27666;SDS011;15074;50.940;5.282;2023-07-09T05:30:28;7.22;;;6.15;;
27666;SDS011;15074;50.940;5.282;2023-07-09T05:32:54;6.68;;;6.07;;
27666;SDS011;15074;50.940;5.282;2023-07-09T05:35:22;6.45;;;5.82;;
27666;SDS011;15074;50.940;5.282;2023-07-09T05:37:50;7.35;;;5.75;;
27666;SDS011;15074;50.940;5.282;2023-07-09T05:40:16;6.18;;;5.57;;
27666;SDS011;15074;50.940;5.282;2023-07-09T05:42:42;6.35;;;5.53;;
27666;SDS011;15074;50.940;5.282;2023-07-09T05:45:08;7.07;;;6.22;;
27666;SDS011;15074;50.940;5.282;2023-07-09T05:47:34;6.03;;;5.43;;
27666;SDS011;15074;50.940;5.282;2023-07-09T05:49:59;6.57;;;5.68;;
27666;SDS011;15074;50.940;5.282;2023-07-09T05:52:25;6.07;;;5.30;;
27666;SDS011;15074;50.940;5.282;2023-07-09T05:54:51;10.15;;;5.15;;
27666;SDS011;15074;50.940;5.282;2023-07-09T05:57:18;5.88;;;5.13;;
27666;SDS011;15074;50.940;5.282;2023-07-09T05:59:43;6.22;;;4.57;;
27666;SDS011;15074;50.940;5.282;2023-07-09T06:02:13;5.68;;;5.18;;
27666;SDS011;15074;50.940;5.282;2023-07-09T06:04:40;6.60;;;4.80;;
27666;SDS011;15074;50.940;5.282;2023-07-09T06:07:07;5.32;;;4.82;;
27666;SDS011;15074;50.940;5.282;2023-07-09T06:09:33;5.17;;;4.67;;
27666;SDS011;15074;50.940;5.282;2023-07-09T06:11:59;7.55;;;4.72;;
27666;SDS011;15074;50.940;5.282;2023-07-09T06:14:26;5.50;;;4.45;;
27666;SDS011;15074;50.940;5.282;2023-07-09T06:16:51;6.13;;;4.78;;
27666;SDS011;15074;50.940;5.282;2023-07-09T06:19:17;5.13;;;4.70;;
27666;SDS011;15074;50.940;5.282;2023-07-09T06:21:43;7.00;;;4.50;;
27666;SDS011;15074;50.940;5.282;2023-07-09T06:24:08;6.28;;;4.60;;
27666;SDS011;15074;50.940;5.282;2023-07-09T06:26:34;7.22;;;4.88;;
27666;SDS011;15074;50.940;5.282;2023-07-09T06:29:00;5.25;;;3.72;;
27666;SDS011;15074;50.940;5.282;2023-07-09T06:31:27;5.30;;;4.65;;
27666;SDS011;15074;50.940;5.282;2023-07-09T06:33:52;5.13;;;4.55;;
27666;SDS011;15074;50.940;5.282;2023-07-09T06:36:18;4.35;;;3.85;;
27666;SDS011;15074;50.940;5.282;2023-07-09T06:38:45;4.55;;;4.05;;
27666;SDS011;15074;50.940;5.282;2023-07-09T06:41:11;5.97;;;4.05;;
27666;SDS011;15074;50.940;5.282;2023-07-09T06:43:37;5.57;;;3.87;;
27666;SDS011;15074;50.940;5.282;2023-07-09T06:46:07;9.48;;;3.97;;
27666;SDS011;15074;50.940;5.282;2023-07-09T06:48:35;4.18;;;3.60;;
27666;SDS011;15074;50.940;5.282;2023-07-09T06:51:01;9.32;;;4.45;;
27666;SDS011;15074;50.940;5.282;2023-07-09T06:53:27;6.93;;;3.90;;
27666;SDS011;15074;50.940;5.282;2023-07-09T06:55:54;5.03;;;3.67;;
27666;SDS011;15074;50.940;5.282;2023-07-09T06:58:23;5.87;;;4.33;;
27666;SDS011;15074;50.940;5.282;2023-07-09T07:00:51;5.90;;;4.00;;
27666;SDS011;15074;50.940;5.282;2023-07-09T07:03:17;3.97;;;3.47;;
27666;SDS011;15074;50.940;5.282;2023-07-09T07:05:44;13.95;;;4.35;;
27666;SDS011;15074;50.940;5.282;2023-07-09T07:08:10;8.73;;;4.05;;
27666;SDS011;15074;50.940;5.282;2023-07-09T07:10:36;5.90;;;4.05;;
27666;SDS011;15074;50.940;5.282;2023-07-09T07:13:01;5.50;;;3.78;;
27666;SDS011;15074;50.940;5.282;2023-07-09T07:15:27;4.65;;;3.47;;
27666;SDS011;15074;50.940;5.282;2023-07-09T07:17:53;4.82;;;3.95;;
27666;SDS011;15074;50.940;5.282;2023-07-09T07:20:18;4.43;;;3.38;;
27666;SDS011;15074;50.940;5.282;2023-07-09T07:22:44;3.42;;;3.05;;
27666;SDS011;15074;50.940;5.282;2023-07-09T07:25:10;6.32;;;3.70;;
27666;SDS011;15074;50.940;5.282;2023-07-09T07:27:37;4.00;;;3.60;;
27666;SDS011;15074;50.940;5.282;2023-07-09T07:30:03;4.32;;;3.42;;
27666;SDS011;15074;50.940;5.282;2023-07-09T07:32:29;4.30;;;3.65;;
27666;SDS011;15074;50.940;5.282;2023-07-09T07:34:56;3.88;;;3.42;;
27666;SDS011;15074;50.940;5.282;2023-07-09T07:37:21;5.10;;;3.40;;
27666;SDS011;15074;50.940;5.282;2023-07-09T07:39:47;4.07;;;3.20;;
27666;SDS011;15074;50.940;5.282;2023-07-09T07:42:14;4.22;;;2.95;;
27666;SDS011;15074;50.940;5.282;2023-07-09T07:44:40;5.07;;;3.40;;
27666;SDS011;15074;50.940;5.282;2023-07-09T07:47:05;5.38;;;3.13;;
27666;SDS011;15074;50.940;5.282;2023-07-09T07:49:31;3.65;;;3.35;;
27666;SDS011;15074;50.940;5.282;2023-07-09T07:51:57;6.67;;;3.57;;
27666;SDS011;15074;50.940;5.282;2023-07-09T07:54:23;5.40;;;3.33;;
27666;SDS011;15074;50.940;5.282;2023-07-09T07:56:49;7.03;;;3.75;;
27666;SDS011;15074;50.940;5.282;2023-07-09T07:59:16;3.65;;;3.35;;
27666;SDS011;15074;50.940;5.282;2023-07-09T08:01:42;3.63;;;3.13;;
27666;SDS011;15074;50.940;5.282;2023-07-09T08:04:08;3.10;;;2.90;;
27666;SDS011;15074;50.940;5.282;2023-07-09T08:06:33;4.60;;;2.95;;
27666;SDS011;15074;50.940;5.282;2023-07-09T08:09:00;31.08;;;5.13;;
27666;SDS011;15074;50.940;5.282;2023-07-09T08:11:27;17.58;;;3.40;;
27666;SDS011;15074;50.940;5.282;2023-07-09T08:13:54;6.10;;;3.28;;
27666;SDS011;15074;50.940;5.282;2023-07-09T08:16:20;3.17;;;2.83;;
27666;SDS011;15074;50.940;5.282;2023-07-09T08:18:46;3.60;;;3.30;;
27666;SDS011;15074;50.940;5.282;2023-07-09T08:21:11;3.73;;;2.83;;
27666;SDS011;15074;50.940;5.282;2023-07-09T08:23:37;4.20;;;2.50;;
27666;SDS011;15074;50.940;5.282;2023-07-09T08:26:03;11.07;;;4.00;;
27666;SDS011;15074;50.940;5.282;2023-07-09T08:28:30;16.13;;;3.97;;
27666;SDS011;15074;50.940;5.282;2023-07-09T08:30:56;4.22;;;2.90;;
27666;SDS011;15074;50.940;5.282;2023-07-09T08:33:22;11.25;;;3.20;;
27666;SDS011;15074;50.940;5.282;2023-07-09T08:35:49;4.50;;;3.10;;
27666;SDS011;15074;50.940;5.282;2023-07-09T08:38:15;4.63;;;2.80;;
27666;SDS011;15074;50.940;5.282;2023-07-09T08:40:43;13.03;;;3.13;;
27666;SDS011;15074;50.940;5.282;2023-07-09T08:43:32;4.80;;;2.92;;
27666;SDS011;15074;50.940;5.282;2023-07-09T08:46:30;3.60;;;2.60;;
27666;SDS011;15074;50.940;5.282;2023-07-09T08:49:18;2.83;;;2.58;;
27666;SDS011;15074;50.940;5.282;2023-07-09T08:52:28;3.20;;;2.90;;
27666;SDS011;15074;50.940;5.282;2023-07-09T08:55:01;3.97;;;2.33;;
27666;SDS011;15074;50.940;5.282;2023-07-09T08:57:36;4.07;;;2.80;;
27666;SDS011;15074;50.940;5.282;2023-07-09T09:02:48;3.42;;;2.72;;
27666;SDS011;15074;50.940;5.282;2023-07-09T09:05:19;2.97;;;2.67;;
27666;SDS011;15074;50.940;5.282;2023-07-09T09:07:48;3.25;;;2.30;;
27666;SDS011;15074;50.940;5.282;2023-07-09T09:10:43;4.00;;;2.50;;
27666;SDS011;15074;50.940;5.282;2023-07-09T09:13:13;6.32;;;2.85;;
27666;SDS011;15074;50.940;5.282;2023-07-09T09:15:44;3.20;;;2.55;;
27666;SDS011;15074;50.940;5.282;2023-07-09T09:23:47;5.30;;;2.38;;
27666;SDS011;15074;50.940;5.282;2023-07-09T09:26:18;4.55;;;2.25;;
27666;SDS011;15074;50.940;5.282;2023-07-09T09:28:53;5.43;;;2.50;;
27666;SDS011;15074;50.940;5.282;2023-07-09T09:31:19;5.33;;;2.83;;
27666;SDS011;15074;50.940;5.282;2023-07-09T09:33:46;4.97;;;2.63;;
27666;SDS011;15074;50.940;5.282;2023-07-09T09:36:19;7.13;;;2.90;;
27666;SDS011;15074;50.940;5.282;2023-07-09T09:38:46;5.15;;;3.00;;
27666;SDS011;15074;50.940;5.282;2023-07-09T09:41:15;9.95;;;2.80;;
27666;SDS011;15074;50.940;5.282;2023-07-09T09:43:46;6.60;;;2.80;;
27666;SDS011;15074;50.940;5.282;2023-07-09T09:46:26;4.35;;;2.53;;
27666;SDS011;15074;50.940;5.282;2023-07-09T09:48:58;7.80;;;3.17;;
27666;SDS011;15074;50.940;5.282;2023-07-09T09:51:26;3.67;;;2.72;;
27666;SDS011;15074;50.940;5.282;2023-07-09T09:53:53;5.78;;;2.55;;
27666;SDS011;15074;50.940;5.282;2023-07-09T09:56:34;8.60;;;3.08;;
27666;SDS011;15074;50.940;5.282;2023-07-09T10:01:32;5.32;;;3.20;;
27666;SDS011;15074;50.940;5.282;2023-07-09T10:04:00;3.47;;;2.10;;
27666;SDS011;15074;50.940;5.282;2023-07-09T10:11:48;4.28;;;3.17;;
27666;SDS011;15074;50.940;5.282;2023-07-09T10:14:25;3.95;;;2.60;;
27666;SDS011;15074;50.940;5.282;2023-07-09T10:19:58;4.03;;;2.53;;
27666;SDS011;15074;50.940;5.282;2023-07-09T10:22:33;5.35;;;2.15;;
27666;SDS011;15074;50.940;5.282;2023-07-09T10:30:47;4.03;;;2.40;;
27666;SDS011;15074;50.940;5.282;2023-07-09T10:36:02;3.40;;;2.40;;
27666;SDS011;15074;50.940;5.282;2023-07-09T10:38:52;3.88;;;2.40;;
27666;SDS011;15074;50.940;5.282;2023-07-09T10:41:25;2.13;;;1.90;;
27666;SDS011;15074;50.940;5.282;2023-07-09T10:44:02;2.97;;;2.42;;
27666;SDS011;15074;50.940;5.282;2023-07-09T10:46:36;3.17;;;2.38;;
27666;SDS011;15074;50.940;5.282;2023-07-09T10:49:05;3.35;;;2.05;;
27666;SDS011;15074;50.940;5.282;2023-07-09T10:51:50;4.03;;;2.28;;
27666;SDS011;15074;50.940;5.282;2023-07-09T10:54:29;3.05;;;2.33;;
27666;SDS011;15074;50.940;5.282;2023-07-09T10:57:02;2.63;;;2.42;;
27666;SDS011;15074;50.940;5.282;2023-07-09T10:59:49;3.15;;;1.88;;
27666;SDS011;15074;50.940;5.282;2023-07-09T11:02:25;4.20;;;2.20;;
27666;SDS011;15074;50.940;5.282;2023-07-09T11:07:26;3.03;;;2.70;;
27666;SDS011;15074;50.940;5.282;2023-07-09T11:09:55;2.90;;;2.10;;
27666;SDS011;15074;50.940;5.282;2023-07-09T11:14:59;4.78;;;2.50;;
27666;SDS011;15074;50.940;5.282;2023-07-09T11:17:38;3.63;;;2.65;;
27666;SDS011;15074;50.940;5.282;2023-07-09T11:20:16;5.25;;;2.25;;
27666;SDS011;15074;50.940;5.282;2023-07-09T11:22:50;3.15;;;2.38;;
27666;SDS011;15074;50.940;5.282;2023-07-09T11:25:27;5.32;;;2.78;;
27666;SDS011;15074;50.940;5.282;2023-07-09T11:28:02;3.33;;;2.83;;
27666;SDS011;15074;50.940;5.282;2023-07-09T11:30:29;4.60;;;2.90;;
27666;SDS011;15074;50.940;5.282;2023-07-09T11:32:59;2.75;;;2.45;;
27666;SDS011;15074;50.940;5.282;2023-07-09T11:35:28;2.80;;;2.60;;
27666;SDS011;15074;50.940;5.282;2023-07-09T11:38:15;3.22;;;2.92;;
27666;SDS011;15074;50.940;5.282;2023-07-09T11:43:28;4.32;;;2.90;;
27666;SDS011;15074;50.940;5.282;2023-07-09T11:46:01;3.35;;;2.72;;
27666;SDS011;15074;50.940;5.282;2023-07-09T11:48:36;4.88;;;2.97;;
27666;SDS011;15074;50.940;5.282;2023-07-09T11:51:07;4.53;;;2.90;;
27666;SDS011;15074;50.940;5.282;2023-07-09T11:53:44;5.50;;;2.90;;
27666;SDS011;15074;50.940;5.282;2023-07-09T11:56:22;14.10;;;4.65;;
27666;SDS011;15074;50.940;5.282;2023-07-09T11:58:53;8.48;;;4.90;;
27666;SDS011;15074;50.940;5.282;2023-07-09T12:01:22;7.38;;;6.15;;
27666;SDS011;15074;50.940;5.282;2023-07-09T12:03:55;7.88;;;5.90;;
27666;SDS011;15074;50.940;5.282;2023-07-09T12:06:23;7.07;;;6.43;;
27666;SDS011;15074;50.940;5.282;2023-07-09T12:08:52;6.63;;;6.03;;
27666;SDS011;15074;50.940;5.282;2023-07-09T12:13:50;9.57;;;6.63;;
27666;SDS011;15074;50.940;5.282;2023-07-09T12:16:24;6.05;;;5.55;;
27666;SDS011;15074;50.940;5.282;2023-07-09T12:18:53;6.67;;;6.17;;
27666;SDS011;15074;50.940;5.282;2023-07-09T12:21:18;7.70;;;6.90;;
27666;SDS011;15074;50.940;5.282;2023-07-09T12:23:45;11.23;;;7.38;;
27666;SDS011;15074;50.940;5.282;2023-07-09T12:26:14;10.15;;;7.97;;
27666;SDS011;15074;50.940;5.282;2023-07-09T12:28:41;16.20;;;8.38;;
27666;SDS011;15074;50.940;5.282;2023-07-09T12:31:14;9.60;;;8.77;;
27666;SDS011;15074;50.940;5.282;2023-07-09T12:33:51;10.00;;;9.10;;
27666;SDS011;15074;50.940;5.282;2023-07-09T12:36:18;9.75;;;8.85;;
27666;SDS011;15074;50.940;5.282;2023-07-09T12:38:45;11.47;;;10.37;;
27666;SDS011;15074;50.940;5.282;2023-07-09T12:41:24;11.43;;;10.13;;
27666;SDS011;15074;50.940;5.282;2023-07-09T12:43:54;9.98;;;8.93;;
27666;SDS011;15074;50.940;5.282;2023-07-09T12:46:21;9.90;;;9.00;;
27666;SDS011;15074;50.940;5.282;2023-07-09T12:48:48;8.68;;;7.85;;
27666;SDS011;15074;50.940;5.282;2023-07-09T12:51:22;9.32;;;8.35;;
27666;SDS011;15074;50.940;5.282;2023-07-09T12:54:03;8.18;;;7.47;;
27666;SDS011;15074;50.940;5.282;2023-07-09T12:56:39;7.25;;;6.55;;
27666;SDS011;15074;50.940;5.282;2023-07-09T12:59:12;7.82;;;7.13;;
27666;SDS011;15074;50.940;5.282;2023-07-09T13:01:49;7.10;;;6.40;;
27666;SDS011;15074;50.940;5.282;2023-07-09T13:04:15;7.97;;;6.90;;
27666;SDS011;15074;50.940;5.282;2023-07-09T13:06:40;7.03;;;6.35;;
27666;SDS011;15074;50.940;5.282;2023-07-09T13:09:16;12.10;;;7.78;;
27666;SDS011;15074;50.940;5.282;2023-07-09T13:11:45;7.75;;;6.63;;
27666;SDS011;15074;50.940;5.282;2023-07-09T13:14:16;6.80;;;6.13;;
27666;SDS011;15074;50.940;5.282;2023-07-09T13:16:44;8.38;;;6.85;;
27666;SDS011;15074;50.940;5.282;2023-07-09T13:19:10;6.90;;;6.30;;
27666;SDS011;15074;50.940;5.282;2023-07-09T13:21:35;7.30;;;6.60;;
27666;SDS011;15074;50.940;5.282;2023-07-09T13:24:08;9.93;;;6.97;;
27666;SDS011;15074;50.940;5.282;2023-07-09T13:26:53;6.75;;;6.25;;
27666;SDS011;15074;50.940;5.282;2023-07-09T13:29:18;6.70;;;6.10;;
27666;SDS011;15074;50.940;5.282;2023-07-09T13:31:45;7.05;;;6.35;;
27666;SDS011;15074;50.940;5.282;2023-07-09T13:34:19;6.55;;;5.97;;
27666;SDS011;15074;50.940;5.282;2023-07-09T13:36:46;6.32;;;5.72;;
27666;SDS011;15074;50.940;5.282;2023-07-09T13:39:12;6.85;;;6.15;;
27666;SDS011;15074;50.940;5.282;2023-07-09T13:41:39;8.13;;;6.13;;
27666;SDS011;15074;50.940;5.282;2023-07-09T13:44:13;5.70;;;5.30;;
27666;SDS011;15074;50.940;5.282;2023-07-09T13:46:44;6.05;;;5.28;;
27666;SDS011;15074;50.940;5.282;2023-07-09T13:49:15;7.88;;;5.57;;
27666;SDS011;15074;50.940;5.282;2023-07-09T13:51:43;5.47;;;4.97;;
27666;SDS011;15074;50.940;5.282;2023-07-09T13:54:21;5.47;;;4.95;;
27666;SDS011;15074;50.940;5.282;2023-07-09T13:56:52;5.05;;;4.65;;
27666;SDS011;15074;50.940;5.282;2023-07-09T13:59:19;10.63;;;5.30;;
27666;SDS011;15074;50.940;5.282;2023-07-09T14:01:47;4.10;;;3.70;;
27666;SDS011;15074;50.940;5.282;2023-07-09T14:06:42;3.90;;;3.55;;
27666;SDS011;15074;50.940;5.282;2023-07-09T14:09:08;3.78;;;3.38;;
27666;SDS011;15074;50.940;5.282;2023-07-09T14:11:36;4.07;;;3.75;;
27666;SDS011;15074;50.940;5.282;2023-07-09T14:14:20;5.65;;;3.60;;
27666;SDS011;15074;50.940;5.282;2023-07-09T14:16:48;4.43;;;3.35;;
27666;SDS011;15074;50.940;5.282;2023-07-09T14:19:16;3.47;;;3.17;;
27666;SDS011;15074;50.940;5.282;2023-07-09T14:21:44;3.97;;;3.60;;
27666;SDS011;15074;50.940;5.282;2023-07-09T14:24:18;3.60;;;3.13;;
27666;SDS011;15074;50.940;5.282;2023-07-09T14:26:46;3.50;;;3.17;;
27666;SDS011;15074;50.940;5.282;2023-07-09T14:29:15;4.13;;;3.42;;
27666;SDS011;15074;50.940;5.282;2023-07-09T14:31:41;4.63;;;3.55;;
27666;SDS011;15074;50.940;5.282;2023-07-09T14:36:52;5.43;;;4.43;;
27666;SDS011;15074;50.940;5.282;2023-07-09T14:39:19;4.40;;;3.92;;
27666;SDS011;15074;50.940;5.282;2023-07-09T14:41:45;5.30;;;4.03;;
27666;SDS011;15074;50.940;5.282;2023-07-09T14:44:22;4.47;;;3.92;;
27666;SDS011;15074;50.940;5.282;2023-07-09T14:46:49;4.63;;;3.90;;
27666;SDS011;15074;50.940;5.282;2023-07-09T14:49:16;4.00;;;3.50;;
27666;SDS011;15074;50.940;5.282;2023-07-09T14:51:45;4.30;;;3.80;;
27666;SDS011;15074;50.940;5.282;2023-07-09T14:54:20;4.35;;;3.33;;
27666;SDS011;15074;50.940;5.282;2023-07-09T14:56:51;3.90;;;3.50;;
27666;SDS011;15074;50.940;5.282;2023-07-09T14:59:17;4.50;;;4.10;;
27666;SDS011;15074;50.940;5.282;2023-07-09T15:01:43;4.03;;;3.72;;
27666;SDS011;15074;50.940;5.282;2023-07-09T15:04:25;4.88;;;4.18;;
27666;SDS011;15074;50.940;5.282;2023-07-09T15:06:54;4.80;;;4.30;;
27666;SDS011;15074;50.940;5.282;2023-07-09T15:09:22;4.80;;;3.80;;
27666;SDS011;15074;50.940;5.282;2023-07-09T15:11:54;7.57;;;3.75;;
27666;SDS011;15074;50.940;5.282;2023-07-09T15:14:22;4.68;;;3.75;;
27666;SDS011;15074;50.940;5.282;2023-07-09T15:16:49;4.72;;;3.80;;
27666;SDS011;15074;50.940;5.282;2023-07-09T15:19:15;4.78;;;3.67;;
27666;SDS011;15074;50.940;5.282;2023-07-09T15:21:46;4.53;;;3.70;;
27666;SDS011;15074;50.940;5.282;2023-07-09T15:24:15;4.82;;;4.28;;
27666;SDS011;15074;50.940;5.282;2023-07-09T15:26:57;3.90;;;3.50;;
27666;SDS011;15074;50.940;5.282;2023-07-09T15:29:25;5.32;;;3.20;;
27666;SDS011;15074;50.940;5.282;2023-07-09T15:31:51;3.78;;;3.13;;
27666;SDS011;15074;50.940;5.282;2023-07-09T15:34:17;3.63;;;2.53;;
27666;SDS011;15074;50.940;5.282;2023-07-09T15:36:43;3.38;;;3.08;;
27666;SDS011;15074;50.940;5.282;2023-07-09T15:39:12;4.65;;;2.95;;
27666;SDS011;15074;50.940;5.282;2023-07-09T15:41:39;4.60;;;2.95;;